Time;durP1;ratioP1;P1;durP2;ratioP2;P2;SDS_P1;SDS_P2;PMS_P1;PMS_P2;Temp;Humidity;BMP_temperature;BMP_pressure;BME280_temperature;BME280_humidity;BME280_pressure;Samples;Min_cycle;Max_cycle;Signal;HPM_P1;HPM_P2
2022/04/08 00:01:42;;;;;;;26.67;14.68;;;9.80;99.90;;;;;;5012846;28;20017;-75
2022/04/08 00:04:08;;;;;;;29.38;15.90;;;9.70;99.90;;;;;;5012933;28;20117;-71
2022/04/08 00:06:34;;;;;;;27.25;13.70;;;9.70;99.90;;;;;;5012718;28;20073;-74
2022/04/08 00:09:00;;;;;;;25.65;15.48;;;9.50;99.90;;;;;;5011752;28;20443;-75
2022/04/08 00:11:26;;;;;;;28.50;16.05;;;9.50;99.90;;;;;;5011837;28;20113;-74
2022/04/08 00:13:53;;;;;;;27.55;15.45;;;9.40;99.90;;;;;;5027361;28;20160;-74
2022/04/08 00:16:22;;;;;;;30.20;18.33;;;9.50;99.90;;;;;;5012144;28;20032;-74
2022/04/08 00:18:49;;;;;;;26.98;14.95;;;9.40;99.90;;;;;;5012208;28;20037;-74
2022/04/08 00:21:15;;;;;;;25.65;13.98;;;9.40;99.90;;;;;;5012320;28;20040;-75
2022/04/08 00:23:42;;;;;;;26.52;13.23;;;9.40;99.90;;;;;;4995154;28;20038;-75
2022/04/08 00:26:08;;;;;;;25.75;13.38;;;9.50;99.90;;;;;;5012279;28;20539;-73
2022/04/08 00:28:34;;;;;;;27.95;13.75;;;9.50;99.90;;;;;;5011922;28;20065;-75
2022/04/08 00:31:04;;;;;;;27.50;13.10;;;9.40;99.90;;;;;;5012171;28;20439;-75
2022/04/08 00:33:56;;;;;;;27.75;14.82;;;9.40;99.90;;;;;;5010758;28;20568;-75
2022/04/08 00:36:24;;;;;;;29.17;16.10;;;9.40;99.90;;;;;;5011025;28;20052;-75
2022/04/08 00:38:50;;;;;;;45.42;22.75;;;9.30;99.90;;;;;;5011811;28;20520;-75
2022/04/08 00:41:24;;;;;;;34.55;17.85;;;9.20;99.90;;;;;;5011807;28;20038;-76
2022/04/08 00:43:53;;;;;;;36.95;17.52;;;9.10;99.90;;;;;;5007011;28;20038;-75
2022/04/08 00:46:19;;;;;;;37.63;18.73;;;9.10;99.90;;;;;;4991494;28;20042;-74
2022/04/08 00:48:44;;;;;;;32.97;18.60;;;9.20;99.90;;;;;;4992220;28;20064;-75
2022/04/08 00:51:11;;;;;;;38.92;19.35;;;9.10;99.90;;;;;;4992527;28;20019;-76
2022/04/08 00:53:38;;;;;;;48.17;19.25;;;9.00;99.90;;;;;;4992584;28;20026;-76
2022/04/08 00:56:05;;;;;;;37.38;17.75;;;9.00;99.90;;;;;;4992777;28;20022;-76
2022/04/08 00:58:32;;;;;;;32.70;19.02;;;8.90;99.90;;;;;;4992299;28;20022;-76
2022/04/08 01:00:57;;;;;;;33.88;19.38;;;8.80;99.90;;;;;;4992377;28;20113;-75
2022/04/08 01:03:23;;;;;;;36.28;18.83;;;8.70;99.90;;;;;;4992470;28;20054;-75
2022/04/08 01:05:54;;;;;;;35.85;20.05;;;8.60;99.90;;;;;;4992188;28;20030;-74
2022/04/08 01:08:20;;;;;;;34.97;19.08;;;8.60;99.90;;;;;;4990736;28;20058;-76
2022/04/08 01:10:49;;;;;;;41.45;21.20;;;8.60;99.90;;;;;;4992397;28;20030;-75
2022/04/08 01:13:15;;;;;;;41.80;21.08;;;8.50;99.90;;;;;;4992213;28;20049;-75
2022/04/08 01:15:41;;;;;;;45.90;23.67;;;8.50;99.90;;;;;;4992474;28;20046;-75
2022/04/08 01:18:07;;;;;;;38.78;20.52;;;8.40;99.90;;;;;;4992208;28;20030;-74
2022/04/08 01:20:33;;;;;;;36.83;18.42;;;8.40;99.90;;;;;;4992335;28;20066;-74
2022/04/08 01:22:59;;;;;;;44.53;17.90;;;8.40;99.90;;;;;;4992184;28;20100;-74
2022/04/08 01:25:25;;;;;;;35.13;17.75;;;8.50;99.90;;;;;;4995697;28;20027;-73
2022/04/08 01:27:51;;;;;;;36.67;13.48;;;8.40;99.90;;;;;;4995944;28;20022;-75
2022/04/08 01:30:19;;;;;;;30.35;13.27;;;8.40;99.90;;;;;;4996055;28;20048;-74
2022/04/08 01:32:45;;;;;;;31.17;12.45;;;8.40;99.90;;;;;;4995773;28;20058;-76
2022/04/08 01:35:11;;;;;;;19.80;9.38;;;8.50;99.90;;;;;;4995931;28;20057;-74
2022/04/08 01:37:37;;;;;;;21.55;10.02;;;8.50;99.90;;;;;;4995795;28;20493;-74
2022/04/08 01:40:03;;;;;;;21.73;10.63;;;8.50;99.90;;;;;;4995263;28;20032;-75
2022/04/08 01:42:29;;;;;;;18.98;10.02;;;8.50;99.90;;;;;;4995403;28;20061;-75
2022/04/08 01:44:57;;;;;;;19.35;9.23;;;8.50;99.90;;;;;;4995736;28;20117;-75
2022/04/08 01:47:23;;;;;;;20.35;9.95;;;8.40;99.90;;;;;;5010678;28;20054;-76
2022/04/08 01:49:51;;;;;;;23.58;12.15;;;8.50;99.90;;;;;;4995521;28;20069;-71
2022/04/08 01:52:17;;;;;;;17.88;8.60;;;8.40;99.90;;;;;;5010851;28;20038;-75
2022/04/08 01:54:48;;;;;;;16.10;8.35;;;8.30;99.90;;;;;;4995210;28;20030;-74
2022/04/08 01:57:18;;;;;;;21.33;8.27;;;8.30;99.90;;;;;;4994214;28;20053;-73
2022/04/08 01:59:44;;;;;;;18.35;9.90;;;8.40;99.90;;;;;;4995465;28;20046;-73
2022/04/08 02:02:10;;;;;;;21.75;10.10;;;8.40;99.90;;;;;;4995767;28;20033;-75
2022/04/08 02:04:36;;;;;;;14.70;8.10;;;8.30;99.90;;;;;;5010834;28;20113;-75
2022/04/08 02:07:02;;;;;;;20.23;9.07;;;8.20;99.90;;;;;;4995036;28;20022;-75
2022/04/08 02:09:28;;;;;;;23.17;7.80;;;8.10;99.90;;;;;;4994722;28;20042;-75
2022/04/08 02:11:54;;;;;;;19.75;12.32;;;8.20;99.90;;;;;;4995098;28;20114;-73
2022/04/08 02:14:20;;;;;;;14.73;7.97;;;8.20;99.90;;;;;;4994803;28;20054;-74
2022/04/08 02:16:46;;;;;;;19.63;8.40;;;8.20;99.90;;;;;;4995108;28;20464;-76
2022/04/08 02:19:12;;;;;;;21.40;9.98;;;8.20;99.90;;;;;;4994714;28;20034;-72
2022/04/08 02:21:37;;;;;;;33.97;11.30;;;8.10;99.90;;;;;;4994731;28;20084;-73
2022/04/08 02:24:04;;;;;;;22.58;9.38;;;8.20;99.90;;;;;;4994938;28;20520;-72
2022/04/08 02:26:30;;;;;;;13.90;7.60;;;8.20;99.90;;;;;;4994946;28;20026;-73
2022/04/08 02:28:56;;;;;;;27.15;10.20;;;8.20;99.90;;;;;;4994342;28;20041;-73
2022/04/08 02:31:22;;;;;;;21.95;10.02;;;8.20;99.90;;;;;;4994433;28;20058;-73
2022/04/08 02:33:48;;;;;;;36.35;9.65;;;8.20;99.90;;;;;;4994562;28;20116;-75
2022/04/08 02:36:13;;;;;;;20.55;7.38;;;8.20;99.90;;;;;;4994392;28;20468;-76
2022/04/08 02:38:39;;;;;;;20.67;8.05;;;8.20;99.90;;;;;;4994459;28;20030;-75
2022/04/08 02:41:05;;;;;;;14.10;7.68;;;8.20;99.90;;;;;;4994638;28;20030;-75
2022/04/08 02:43:31;;;;;;;18.15;8.48;;;8.20;99.90;;;;;;4994286;28;20151;-75
2022/04/08 02:45:57;;;;;;;14.85;7.70;;;8.30;99.90;;;;;;4994515;28;20030;-76
2022/04/08 02:48:23;;;;;;;24.70;8.43;;;8.30;99.90;;;;;;4994187;28;20533;-72
2022/04/08 02:50:49;;;;;;;21.48;10.88;;;8.30;99.90;;;;;;4994279;28;20041;-75
2022/04/08 02:53:17;;;;;;;19.13;10.02;;;8.40;99.90;;;;;;4994490;28;20023;-76
2022/04/08 02:55:42;;;;;;;21.02;10.90;;;8.40;99.90;;;;;;4994161;28;20028;-72
2022/04/08 02:58:08;;;;;;;23.13;14.82;;;8.40;99.90;;;;;;4994244;28;20547;-72
2022/04/08 03:00:34;;;;;;;20.45;13.30;;;8.40;99.90;;;;;;4993694;28;20481;-72
2022/04/08 03:03:00;;;;;;;25.90;15.65;;;8.40;99.90;;;;;;4994056;28;20455;-74
2022/04/08 03:05:26;;;;;;;31.17;16.10;;;8.40;99.90;;;;;;4994247;28;20033;-73
2022/04/08 03:07:52;;;;;;;20.50;14.25;;;8.40;99.90;;;;;;4992896;28;20038;-74
2022/04/08 03:10:18;;;;;;;22.65;11.52;;;8.40;99.90;;;;;;4993411;28;20045;-69
2022/04/08 03:12:44;;;;;;;24.65;10.52;;;8.30;99.90;;;;;;4993785;28;20031;-71
2022/04/08 03:15:11;;;;;;;24.80;16.13;;;8.30;99.90;;;;;;4993372;28;20033;-72
2022/04/08 03:17:37;;;;;;;24.50;15.45;;;8.30;99.90;;;;;;5013640;28;20072;-73
2022/04/08 03:20:07;;;;;;;16.35;9.70;;;8.30;99.90;;;;;;5013393;28;20061;-72
2022/04/08 03:22:35;;;;;;;20.02;10.13;;;8.30;99.90;;;;;;5013528;28;20094;-72
2022/04/08 03:25:08;;;;;;;19.98;9.77;;;8.30;99.90;;;;;;5013169;28;20026;-73
2022/04/08 03:27:42;;;;;;;19.67;11.68;;;8.20;99.90;;;;;;5013072;28;20121;-73
2022/04/08 03:30:18;;;;;;;32.03;15.98;;;8.20;99.90;;;;;;5012257;28;20030;-74
2022/04/08 03:32:47;;;;;;;27.90;18.83;;;8.20;99.90;;;;;;5011828;28;20056;-73
2022/04/08 03:35:18;;;;;;;49.75;43.50;;;8.30;99.90;;;;;;5013353;28;20044;-74
2022/04/08 03:37:44;;;;;;;59.78;53.40;;;8.30;99.90;;;;;;5012925;28;20041;-74
2022/04/08 03:40:10;;;;;;;39.00;34.20;;;8.20;99.90;;;;;;5012641;28;20041;-74
2022/04/08 03:42:36;;;;;;;25.58;20.20;;;8.20;99.90;;;;;;5012701;28;20030;-73
2022/04/08 03:45:06;;;;;;;39.03;19.00;;;8.10;99.90;;;;;;5011915;28;20495;-73
2022/04/08 03:47:32;;;;;;;37.75;18.67;;;8.10;99.90;;;;;;5010060;28;20184;-73
2022/04/08 03:49:57;;;;;;;31.15;15.50;;;8.00;99.90;;;;;;5012964;28;20532;-75
2022/04/08 03:52:32;;;;;;;25.48;13.25;;;7.90;99.90;;;;;;5012619;28;20515;-74
2022/04/08 03:55:02;;;;;;;18.42;10.18;;;7.90;99.90;;;;;;5012895;28;20034;-74
2022/04/08 03:57:28;;;;;;;23.95;10.73;;;7.80;99.90;;;;;;5012667;28;20045;-74
2022/04/08 03:59:55;;;;;;;19.33;10.65;;;7.90;99.90;;;;;;5013089;28;20052;-75
2022/04/08 04:02:21;;;;;;;22.70;10.38;;;7.90;99.90;;;;;;5012284;28;20049;-76
2022/04/08 04:04:49;;;;;;;23.75;12.32;;;7.90;99.90;;;;;;5012027;28;20677;-71
2022/04/08 04:07:15;;;;;;;19.88;11.25;;;7.90;99.90;;;;;;5011283;28;20034;-74
2022/04/08 04:09:41;;;;;;;20.60;10.23;;;7.90;99.90;;;;;;4994695;28;20519;-73
2022/04/08 04:12:08;;;;;;;32.40;11.52;;;8.00;99.90;;;;;;5011533;28;20076;-75
2022/04/08 04:14:34;;;;;;;16.70;8.45;;;8.10;99.90;;;;;;5010983;28;20100;-74
2022/04/08 04:16:59;;;;;;;21.75;10.30;;;8.10;99.90;;;;;;5011971;28;20543;-74
2022/04/08 04:19:25;;;;;;;20.02;9.25;;;8.10;99.90;;;;;;5012326;28;20037;-74
2022/04/08 04:21:51;;;;;;;18.10;9.35;;;8.20;99.90;;;;;;5012330;28;20105;-74
2022/04/08 04:24:17;;;;;;;17.15;7.72;;;8.40;99.90;;;;;;4994907;28;20110;-73
2022/04/08 04:26:43;;;;;;;18.08;9.35;;;8.60;99.90;;;;;;4994343;28;20038;-74
2022/04/08 04:29:11;;;;;;;22.52;11.82;;;8.80;99.90;;;;;;5011857;28;20038;-73
2022/04/08 04:31:37;;;;;;;25.08;14.45;;;8.90;99.90;;;;;;5011495;28;20033;-73
2022/04/08 04:34:03;;;;;;;27.58;15.05;;;8.90;99.90;;;;;;5001783;28;20026;-73
2022/04/08 04:36:29;;;;;;;30.55;17.10;;;9.00;99.90;;;;;;5012334;28;20030;-73
2022/04/08 04:38:55;;;;;;;33.03;17.15;;;9.50;99.90;;;;;;5013154;28;20049;-73
2022/04/08 04:41:21;;;;;;;30.00;18.10;;;9.90;99.90;;;;;;5014665;28;20088;-74
2022/04/08 04:43:47;;;;;;;25.95;15.35;;;10.00;99.90;;;;;;4994561;28;20026;-72
2022/04/08 04:46:13;;;;;;;31.13;16.20;;;10.00;99.90;;;;;;5012229;28;20491;-71
2022/04/08 04:48:39;;;;;;;32.17;15.77;;;10.10;99.90;;;;;;5011629;28;20054;-72
2022/04/08 04:51:04;;;;;;;21.88;11.13;;;10.30;99.90;;;;;;5011921;28;20112;-73
2022/04/08 04:53:31;;;;;;;23.52;10.90;;;10.70;99.90;;;;;;5012081;28;20597;-73
2022/04/08 04:55:58;;;;;;;23.42;12.02;;;10.70;99.90;;;;;;5010992;28;20030;-72
2022/04/08 04:58:25;;;;;;;25.30;11.88;;;11.20;99.90;;;;;;5014621;28;20026;-74
2022/04/08 05:00:51;;;;;;;22.30;10.75;;;11.40;99.90;;;;;;5016082;28;20438;-73
2022/04/08 05:03:17;;;;;;;25.67;13.35;;;11.70;99.90;;;;;;5015037;28;20018;-73
2022/04/08 05:05:43;;;;;;;33.50;16.70;;;12.20;99.90;;;;;;5016233;28;20076;-73
2022/04/08 05:08:08;;;;;;;29.17;16.23;;;12.80;99.90;;;;;;5016055;28;20029;-73
2022/04/08 05:10:35;;;;;;;42.33;19.35;;;13.30;99.90;;;;;;5015776;28;20041;-73
2022/04/08 05:13:01;;;;;;;30.27;14.15;;;14.10;99.90;;;;;;5014588;28;20034;-73
2022/04/08 05:15:28;;;;;;;25.52;13.45;;;14.60;99.90;;;;;;5015782;28;20037;-73
2022/04/08 05:17:57;;;;;;;31.33;13.77;;;14.50;99.90;;;;;;5002109;28;20026;-74
2022/04/08 05:20:23;;;;;;;29.17;15.55;;;14.30;99.90;;;;;;5014331;28;20045;-73
2022/04/08 05:22:49;;;;;;;33.08;17.42;;;14.10;99.90;;;;;;5015666;28;20049;-74
2022/04/08 05:25:15;;;;;;;31.85;16.95;;;14.00;99.90;;;;;;5015713;28;20034;-73
2022/04/08 05:27:45;;;;;;;40.58;18.08;;;13.80;99.90;;;;;;5015210;28;20356;-73
2022/04/08 05:30:15;;;;;;;46.42;24.70;;;13.70;99.90;;;;;;5014004;28;20026;-73
2022/04/08 05:32:41;;;;;;;39.00;24.50;;;13.60;99.90;;;;;;4997754;28;20089;-73
2022/04/08 05:35:07;;;;;;;34.45;23.33;;;13.50;99.90;;;;;;5015272;28;20034;-73
2022/04/08 05:37:42;;;;;;;41.03;23.25;;;13.50;99.90;;;;;;5015161;28;20052;-73
2022/04/08 05:40:14;;;;;;;31.42;18.83;;;13.60;99.90;;;;;;5013736;28;20408;-73
2022/04/08 05:42:49;;;;;;;27.40;16.55;;;13.80;99.90;;;;;;5013530;28;20038;-72
2022/04/08 05:45:18;;;;;;;29.75;17.30;;;13.90;99.90;;;;;;5016514;28;20076;-73
2022/04/08 05:47:50;;;;;;;31.60;19.02;;;14.00;99.90;;;;;;5014608;28;20041;-72
2022/04/08 05:50:19;;;;;;;37.83;21.80;;;14.30;99.90;;;;;;5013898;28;20740;-71
2022/04/08 05:52:47;;;;;;;27.50;17.10;;;14.20;99.90;;;;;;5014281;28;20413;-73
2022/04/08 05:55:14;;;;;;;28.70;15.95;;;14.10;99.90;;;;;;5000055;28;20033;-73
2022/04/08 05:57:40;;;;;;;27.50;14.55;;;14.20;99.20;;;;;;5013682;28;20029;-73
2022/04/08 06:00:10;;;;;;;25.92;12.90;;;14.40;99.30;;;;;;5014140;28;20033;-73
2022/04/08 06:02:36;;;;;;;28.08;12.85;;;14.50;99.90;;;;;;5014779;28;20084;-73
2022/04/08 06:05:03;;;;;;;23.60;11.80;;;14.40;99.90;;;;;;5015036;28;20467;-73
2022/04/08 06:07:29;;;;;;;16.92;9.68;;;14.40;99.90;;;;;;5014596;28;20482;-72
2022/04/08 06:09:57;;;;;;;16.50;9.18;;;14.60;99.90;;;;;;5014903;28;20029;-72
2022/04/08 06:12:25;;;;;;;16.30;7.97;;;14.60;99.20;;;;;;5013510;28;20475;-72
2022/04/08 06:14:53;;;;;;;14.63;7.10;;;14.80;99.90;;;;;;5015599;28;20054;-73
2022/04/08 06:17:19;;;;;;;17.00;8.50;;;14.70;99.90;;;;;;5012904;28;20022;-71
2022/04/08 06:19:47;;;;;;;18.55;8.55;;;14.90;99.90;;;;;;5010612;28;20088;-71
2022/04/08 06:22:13;;;;;;;19.75;10.35;;;15.10;99.00;;;;;;5013854;28;20484;-72
2022/04/08 06:24:39;;;;;;;12.38;7.25;;;15.20;99.90;;;;;;5012852;28;20022;-71
2022/04/08 06:27:05;;;;;;;16.92;7.72;;;15.10;98.90;;;;;;5016355;28;20034;-72
2022/04/08 06:29:32;;;;;;;18.13;9.20;;;15.40;99.00;;;;;;5012323;28;20104;-72
2022/04/08 06:31:58;;;;;;;17.25;9.77;;;15.60;98.70;;;;;;5011566;28;20026;-72
2022/04/08 06:34:24;;;;;;;21.90;11.40;;;15.70;97.40;;;;;;5020962;28;20030;-71
2022/04/08 06:36:50;;;;;;;17.58;8.85;;;16.10;93.40;;;;;;5014178;28;20026;-72
2022/04/08 06:39:19;;;;;;;18.63;9.38;;;16.10;91.80;;;;;;5013412;28;20056;-73
2022/04/08 06:41:48;;;;;;;16.35;8.38;;;16.10;92.60;;;;;;5010684;28;20022;-72
2022/04/08 06:44:13;;;;;;;20.17;9.35;;;16.30;94.00;;;;;;5014888;28;20026;-72
2022/04/08 06:46:39;;;;;;;18.65;9.50;;;16.60;93.50;;;;;;5013247;28;20487;-72
2022/04/08 06:49:06;;;;;;;17.80;9.02;;;16.70;92.00;;;;;;5013510;28;20050;-73
2022/04/08 06:51:32;;;;;;;15.38;7.38;;;16.70;92.20;;;;;;5012596;28;20068;-73
2022/04/08 06:53:59;;;;;;;21.60;13.00;;;16.90;91.80;;;;;;5012297;28;20037;-73
2022/04/08 06:56:25;;;;;;;22.70;13.55;;;17.00;90.60;;;;;;5014370;28;20486;-72
2022/04/08 06:58:51;;;;;;;18.75;12.05;;;17.10;92.50;;;;;;5013850;28;20049;-72
2022/04/08 07:01:18;;;;;;;16.88;10.00;;;17.20;95.20;;;;;;5012243;28;20034;-72
2022/04/08 07:03:43;;;;;;;16.65;8.70;;;17.20;93.00;;;;;;5015746;28;20034;-72
2022/04/08 07:06:09;;;;;;;14.77;7.63;;;17.10;91.40;;;;;;5012871;28;20434;-73
2022/04/08 07:08:35;;;;;;;17.48;8.75;;;16.90;90.30;;;;;;5011489;28;20052;-73
2022/04/08 07:11:02;;;;;;;16.20;7.75;;;16.90;91.10;;;;;;5014351;28;20057;-73
2022/04/08 07:13:28;;;;;;;17.48;8.55;;;16.90;89.30;;;;;;4995303;28;20030;-72
2022/04/08 07:15:54;;;;;;;13.05;7.38;;;17.00;90.00;;;;;;5011847;28;20032;-72
2022/04/08 07:18:21;;;;;;;16.52;6.90;;;17.00;89.00;;;;;;5012248;28;20024;-72
2022/04/08 07:20:47;;;;;;;14.98;7.15;;;17.20;87.40;;;;;;5012510;28;20042;-73
2022/04/08 07:23:13;;;;;;;14.50;6.38;;;17.20;87.80;;;;;;5009568;28;20064;-72
2022/04/08 07:25:39;;;;;;;11.48;5.78;;;17.30;87.80;;;;;;5007101;28;20068;-72
2022/04/08 07:28:06;;;;;;;9.75;4.35;;;17.30;83.70;;;;;;5012069;28;20058;-72
2022/04/08 07:30:32;;;;;;;12.23;4.95;;;17.40;78.10;;;;;;5012234;28;20026;-72
2022/04/08 07:33:00;;;;;;;10.38;4.72;;;17.60;77.80;;;;;;5012332;28;20084;-72
2022/04/08 07:35:26;;;;;;;8.45;4.43;;;17.90;80.90;;;;;;5011964;28;20113;-72
2022/04/08 07:37:53;;;;;;;9.07;3.90;;;18.00;76.20;;;;;;5013625;28;20060;-73
2022/04/08 07:40:20;;;;;;;8.85;4.20;;;17.90;78.50;;;;;;5011679;28;20372;-73
2022/04/08 07:42:46;;;;;;;7.13;3.55;;;18.00;77.70;;;;;;5011541;28;20033;-73
2022/04/08 07:45:13;;;;;;;6.80;3.90;;;18.10;75.90;;;;;;5012179;28;20079;-72
2022/04/08 07:47:39;;;;;;;12.20;4.78;;;18.30;78.80;;;;;;5011950;28;20065;-72
2022/04/08 07:50:09;;;;;;;6.22;4.10;;;18.40;78.60;;;;;;5012467;28;20479;-73
2022/04/08 07:52:36;;;;;;;6.55;3.83;;;18.40;77.50;;;;;;5013966;28;20943;-73
2022/04/08 07:55:02;;;;;;;6.20;3.85;;;18.60;75.70;;;;;;5012280;28;20022;-73
2022/04/08 07:57:35;;;;;;;10.35;5.13;;;18.60;73.70;;;;;;5011662;28;20160;-73
2022/04/08 08:00:02;;;;;;;8.82;4.70;;;18.80;75.10;;;;;;5010408;28;20052;-73
2022/04/08 08:02:37;;;;;;;6.18;3.80;;;18.80;72.60;;;;;;5011098;28;20025;-73
2022/04/08 08:05:04;;;;;;;9.02;4.45;;;19.00;75.60;;;;;;5012213;28;20541;-73
2022/04/08 08:07:30;;;;;;;9.68;4.80;;;19.30;73.50;;;;;;5011860;28;20435;-73
2022/04/08 08:09:59;;;;;;;12.45;4.60;;;19.30;70.50;;;;;;5010583;28;20088;-74
2022/04/08 08:12:25;;;;;;;7.30;3.53;;;19.40;71.20;;;;;;5011649;28;20041;-74
2022/04/08 08:14:52;;;;;;;6.95;3.40;;;19.50;70.70;;;;;;5013235;28;20025;-73
2022/04/08 08:17:18;;;;;;;9.38;4.00;;;19.00;69.90;;;;;;5011845;28;20212;-73
2022/04/08 08:19:44;;;;;;;8.23;3.80;;;19.00;70.60;;;;;;5011513;28;20040;-74
2022/04/08 08:22:10;;;;;;;8.43;3.85;;;18.90;73.50;;;;;;5011452;28;20034;-72
2022/04/08 08:24:36;;;;;;;5.88;3.17;;;19.00;73.20;;;;;;5010335;28;20088;-74
2022/04/08 08:27:02;;;;;;;8.52;3.65;;;19.00;71.20;;;;;;5014208;28;20029;-72
2022/04/08 08:29:29;;;;;;;5.43;3.47;;;18.80;75.40;;;;;;5011800;28;20063;-73
2022/04/08 08:31:55;;;;;;;5.53;3.38;;;19.00;72.10;;;;;;5009857;28;20026;-74
2022/04/08 08:34:21;;;;;;;8.00;3.80;;;19.10;70.80;;;;;;5010113;28;20072;-72
2022/04/08 08:36:47;;;;;;;11.23;3.60;;;19.10;70.80;;;;;;5009896;28;20026;-73
2022/04/08 08:39:13;;;;;;;6.15;3.15;;;19.20;71.40;;;;;;5010268;28;20029;-73
2022/04/08 08:41:40;;;;;;;5.55;3.10;;;19.40;71.90;;;;;;5012106;28;20034;-74
2022/04/08 08:44:06;;;;;;;6.47;3.05;;;19.50;74.20;;;;;;5011202;28;20484;-74
2022/04/08 08:46:34;;;;;;;7.15;3.38;;;19.50;72.20;;;;;;5011390;28;20040;-73
2022/04/08 08:49:03;;;;;;;6.85;3.35;;;19.40;72.30;;;;;;5010828;28;20488;-75
2022/04/08 08:51:34;;;;;;;6.95;3.13;;;19.60;74.10;;;;;;5014543;28;20079;-73
2022/04/08 08:54:00;;;;;;;5.63;2.85;;;19.80;71.30;;;;;;5010242;28;20060;-73
2022/04/08 08:56:26;;;;;;;7.03;2.70;;;19.80;68.90;;;;;;5011821;28;20026;-72
2022/04/08 08:58:52;;;;;;;8.60;3.22;;;19.80;70.60;;;;;;5011099;28;20057;-74
2022/04/08 09:01:18;;;;;;;5.20;3.13;;;19.70;70.20;;;;;;5012870;28;20426;-74
2022/04/08 09:03:45;;;;;;;6.65;2.78;;;19.60;68.60;;;;;;5011088;28;20507;-74
2022/04/08 09:06:11;;;;;;;5.80;2.13;;;19.70;69.60;;;;;;5010259;28;20030;-73
2022/04/08 09:08:38;;;;;;;7.90;3.33;;;19.60;66.70;;;;;;5026879;28;20069;-73
2022/04/08 09:11:05;;;;;;;7.13;3.45;;;19.70;66.40;;;;;;4995607;28;20030;-74
2022/04/08 09:13:43;;;;;;;7.35;2.83;;;19.70;72.20;;;;;;4994432;28;20030;-72
2022/04/08 09:16:10;;;;;;;6.55;2.50;;;19.80;67.30;;;;;;5010003;28;20032;-73
2022/04/08 09:18:40;;;;;;;3.25;2.05;;;19.80;68.20;;;;;;5011082;28;20101;-73
2022/04/08 09:21:06;;;;;;;6.03;2.67;;;19.90;66.40;;;;;;5010754;28;20042;-74
2022/04/08 09:23:33;;;;;;;5.57;2.20;;;20.10;67.10;;;;;;5012017;28;20072;-73
2022/04/08 09:26:02;;;;;;;4.65;2.65;;;20.10;69.10;;;;;;5009808;28;20399;-73
2022/04/08 09:28:36;;;;;;;7.32;3.22;;;20.60;67.40;;;;;;5008611;28;20109;-73
2022/04/08 09:31:03;;;;;;;8.52;3.45;;;20.50;66.80;;;;;;5010993;28;20376;-73
2022/04/08 09:33:30;;;;;;;6.65;2.88;;;20.90;66.60;;;;;;5009463;28;20022;-74
2022/04/08 09:35:58;;;;;;;8.77;3.08;;;20.80;67.70;;;;;;5006367;28;20037;-73
2022/04/08 09:38:26;;;;;;;13.98;4.05;;;20.80;65.80;;;;;;5014604;28;20045;-73
2022/04/08 09:41:08;;;;;;;5.32;3.10;;;21.00;68.20;;;;;;4996408;28;20088;-73
2022/04/08 09:43:36;;;;;;;6.25;2.83;;;21.00;65.80;;;;;;5010787;28;20033;-73
2022/04/08 09:46:21;;;;;;;6.28;2.85;;;20.80;65.90;;;;;;5016209;28;20471;-74
2022/04/08 09:48:48;;;;;;;4.90;2.50;;;20.60;65.10;;;;;;5013818;28;20053;-73
2022/04/08 09:51:20;;;;;;;7.25;2.47;;;20.80;66.90;;;;;;4999070;28;20488;-73
2022/04/08 09:54:08;;;;;;;4.18;2.40;;;20.90;65.70;;;;;;5014254;28;20030;-74
2022/04/08 09:56:36;;;;;;;6.10;2.90;;;20.90;65.20;;;;;;4998624;28;20128;-73
2022/04/08 09:59:05;;;;;;;7.47;2.72;;;20.90;65.70;;;;;;5012282;28;20435;-74
2022/04/08 10:01:32;;;;;;;3.22;2.30;;;20.90;67.10;;;;;;5013383;28;20034;-73
2022/04/08 10:03:58;;;;;;;5.32;2.58;;;21.00;64.00;;;;;;5012527;28;20018;-72
2022/04/08 10:06:25;;;;;;;3.67;2.15;;;21.10;65.60;;;;;;5013094;28;20412;-73
2022/04/08 10:08:51;;;;;;;6.13;2.45;;;20.90;63.90;;;;;;4996182;28;20033;-73
2022/04/08 10:11:44;;;;;;;4.15;2.58;;;21.10;64.80;;;;;;5015448;28;20053;-74
2022/04/08 10:14:14;;;;;;;5.35;2.72;;;21.10;66.30;;;;;;5018603;28;20046;-73
2022/04/08 10:16:41;;;;;;;5.05;2.25;;;21.30;67.20;;;;;;5013404;28;20607;-73
2022/04/08 10:19:07;;;;;;;7.22;2.40;;;21.10;63.40;;;;;;5013382;28;20444;-73
2022/04/08 10:21:39;;;;;;;4.70;2.40;;;21.00;64.00;;;;;;5009839;28;20111;-73
2022/04/08 10:24:13;;;;;;;5.57;2.30;;;21.40;64.70;;;;;;5011078;28;20022;-73
2022/04/08 10:27:03;;;;;;;4.50;1.98;;;21.50;64.10;;;;;;5010607;28;20279;-72
2022/04/08 10:29:32;;;;;;;4.85;2.17;;;21.20;62.40;;;;;;5012444;28;20301;-72
2022/04/08 10:32:03;;;;;;;5.20;2.20;;;21.40;64.60;;;;;;5012516;28;20032;-73
2022/04/08 10:34:33;;;;;;;4.85;2.03;;;21.50;65.60;;;;;;5013145;28;20058;-73
2022/04/08 10:37:00;;;;;;;4.53;2.63;;;21.60;67.30;;;;;;5013483;28;20056;-71
2022/04/08 10:39:26;;;;;;;6.13;2.50;;;21.80;66.00;;;;;;5012684;28;20029;-72
2022/04/08 10:41:57;;;;;;;8.63;2.70;;;22.00;64.50;;;;;;5012853;28;20076;-73
2022/04/08 10:44:34;;;;;;;4.43;2.55;;;22.10;62.60;;;;;;5011533;28;20037;-73
2022/04/08 10:47:10;;;;;;;3.30;2.33;;;22.10;62.30;;;;;;5012739;28;20021;-73
2022/04/08 10:49:53;;;;;;;3.25;2.00;;;21.90;62.30;;;;;;5007614;28;20400;-73
2022/04/08 10:52:28;;;;;;;5.47;2.45;;;21.60;65.30;;;;;;5012826;28;20046;-72
2022/04/08 10:55:11;;;;;;;5.00;2.55;;;21.80;63.30;;;;;;5012421;28;20033;-71
2022/04/08 10:57:42;;;;;;;5.28;2.50;;;21.80;65.40;;;;;;5011758;28;20113;-71
2022/04/08 11:00:11;;;;;;;6.07;2.22;;;22.00;66.10;;;;;;5011012;28;20041;-73
2022/04/08 11:02:39;;;;;;;8.85;2.65;;;21.80;64.80;;;;;;5023071;28;20022;-73
2022/04/08 11:05:13;;;;;;;7.00;2.20;;;21.90;65.90;;;;;;5010775;28;20026;-73
2022/04/08 11:07:45;;;;;;;3.33;2.10;;;21.80;65.70;;;;;;5012878;28;20026;-73
2022/04/08 11:10:16;;;;;;;3.67;2.40;;;21.90;63.20;;;;;;5012484;28;20056;-73
2022/04/08 11:12:47;;;;;;;7.10;2.50;;;21.60;62.80;;;;;;5012810;28;20395;-71
2022/04/08 11:15:18;;;;;;;4.65;2.00;;;21.50;63.00;;;;;;5011236;28;20022;-72
2022/04/08 11:17:50;;;;;;;3.70;2.30;;;21.50;62.70;;;;;;5011420;28;20380;-73
2022/04/08 11:20:19;;;;;;;5.78;2.50;;;21.60;63.10;;;;;;5011128;28;20087;-73
2022/04/08 11:22:47;;;;;;;5.78;2.15;;;21.70;63.30;;;;;;5011193;28;20440;-73
2022/04/08 11:25:21;;;;;;;3.38;2.30;;;21.60;62.80;;;;;;5013126;28;20034;-71
2022/04/08 11:28:12;;;;;;;5.90;1.90;;;21.70;63.80;;;;;;5012143;28;20033;-73
2022/04/08 11:30:39;;;;;;;4.00;2.25;;;21.60;62.20;;;;;;5011526;28;20037;-72
2022/04/08 11:33:14;;;;;;;4.20;2.38;;;21.70;62.60;;;;;;4994689;28;20026;-69
2022/04/08 11:35:40;;;;;;;8.05;2.55;;;21.70;64.50;;;;;;5011185;28;20029;-72
2022/04/08 11:38:18;;;;;;;8.40;2.28;;;21.80;64.90;;;;;;5012466;28;20100;-74
2022/04/08 11:40:45;;;;;;;4.70;2.28;;;21.80;63.70;;;;;;5012306;28;20069;-72
2022/04/08 11:43:15;;;;;;;6.43;2.00;;;21.80;62.70;;;;;;5011751;28;20031;-72
2022/04/08 11:45:45;;;;;;;4.30;2.35;;;21.80;65.50;;;;;;5012446;28;20440;-72
2022/04/08 11:48:16;;;;;;;5.40;2.28;;;22.00;65.10;;;;;;5012010;28;20037;-73
2022/04/08 11:50:47;;;;;;;9.95;3.28;;;22.10;65.00;;;;;;5012515;28;20053;-73
2022/04/08 11:53:18;;;;;;;3.88;2.08;;;22.10;65.20;;;;;;5010743;28;20069;-72
2022/04/08 11:55:54;;;;;;;4.97;2.70;;;22.10;63.30;;;;;;5012134;28;20025;-73
2022/04/08 11:58:21;;;;;;;3.22;2.00;;;21.90;61.80;;;;;;5010504;28;20030;-73
2022/04/08 12:00:48;;;;;;;4.70;2.28;;;21.90;61.70;;;;;;4994167;28;20622;-73
2022/04/08 12:03:29;;;;;;;7.93;2.75;;;22.00;62.00;;;;;;5009911;28;20388;-72
2022/04/08 12:05:56;;;;;;;5.60;2.22;;;22.20;62.10;;;;;;5010523;28;20030;-73
2022/04/08 12:08:22;;;;;;;4.68;2.25;;;22.40;63.70;;;;;;5010942;28;20498;-73
2022/04/08 12:10:53;;;;;;;5.78;2.47;;;22.60;64.10;;;;;;5011605;28;20472;-73
2022/04/08 12:13:22;;;;;;;4.97;2.10;;;22.60;63.00;;;;;;5012155;28;20038;-74
2022/04/08 12:15:49;;;;;;;5.38;2.42;;;22.70;62.00;;;;;;5011741;28;20509;-69
2022/04/08 12:18:33;;;;;;;9.45;2.17;;;22.60;60.40;;;;;;5011592;28;20030;-73
2022/04/08 12:21:03;;;;;;;4.35;1.92;;;22.60;59.50;;;;;;5010240;28;20042;-71
2022/04/08 12:23:29;;;;;;;4.88;2.10;;;22.60;60.50;;;;;;5011905;28;20034;-68
2022/04/08 12:25:59;;;;;;;3.83;2.00;;;22.80;61.90;;;;;;5011377;28;20365;-73
2022/04/08 12:28:29;;;;;;;3.05;1.92;;;22.70;60.30;;;;;;5010337;28;20061;-69
2022/04/08 12:30:56;;;;;;;2.67;1.67;;;22.80;60.30;;;;;;5020658;28;20038;-73
2022/04/08 12:33:22;;;;;;;7.28;1.65;;;22.70;59.40;;;;;;5018210;28;20479;-73
2022/04/08 12:35:49;;;;;;;5.65;2.42;;;22.90;60.80;;;;;;5011893;28;20041;-73
2022/04/08 12:38:22;;;;;;;4.97;2.35;;;22.70;59.40;;;;;;5010604;28;20022;-72
2022/04/08 12:40:50;;;;;;;3.88;2.17;;;22.50;60.70;;;;;;5025423;28;20038;-75
2022/04/08 12:43:19;;;;;;;2.88;2.13;;;22.40;59.10;;;;;;5010909;28;20108;-73
2022/04/08 12:45:45;;;;;;;4.47;2.08;;;22.20;58.60;;;;;;5009960;28;20057;-73